createdAt,value
2023-03-03T00:02:24.898Z,7.15
2023-03-03T00:04:53.586Z,7.22
2023-03-03T00:07:23.265Z,7.17
2023-03-03T00:09:50.981Z,7.19
2023-03-03T00:12:32.183Z,7.22
2023-03-03T00:14:59.078Z,7.11
2023-03-03T00:17:28.701Z,7.13
2023-03-03T00:19:56.558Z,7.17
2023-03-03T00:22:40.352Z,7.05
2023-03-03T00:25:32.668Z,7.04
2023-03-03T00:28:41.584Z,6.97
2023-03-03T00:31:20.334Z,6.89
2023-03-03T00:33:55.696Z,7.00
2023-03-03T00:36:32.741Z,7.03
2023-03-03T00:39:22.460Z,7.12
2023-03-03T00:41:51.996Z,7.01
2023-03-03T00:44:25.783Z,7.02
2023-03-03T00:46:54.214Z,7.12
2023-03-03T00:49:29.473Z,6.88
2023-03-03T00:51:58.825Z,7.01
2023-03-03T00:54:25.722Z,7.21
2023-03-03T00:56:52.536Z,7.11
2023-03-03T00:59:19.483Z,7.00
2023-03-03T01:01:46.354Z,7.15
2023-03-03T01:04:13.261Z,7.19
2023-03-03T01:06:40.169Z,7.01
2023-03-03T01:09:11.622Z,6.91
2023-03-03T01:11:43.006Z,6.92
2023-03-03T01:14:12.139Z,6.80
2023-03-03T01:16:39.018Z,6.86
2023-03-03T01:19:10.505Z,6.96
2023-03-03T01:21:40.044Z,7.01
2023-03-03T01:24:09.416Z,6.98
2023-03-03T01:26:39.306Z,6.87
2023-03-03T01:29:08.586Z,6.89
2023-03-03T01:31:35.690Z,6.77
2023-03-03T01:34:04.921Z,6.75
2023-03-03T01:36:31.888Z,6.78
2023-03-03T01:38:58.796Z,6.84
2023-03-03T01:41:30.177Z,6.82
2023-03-03T01:43:57.237Z,6.61
2023-03-03T01:46:55.925Z,6.75
2023-03-03T01:49:51.730Z,6.70
2023-03-03T01:52:28.142Z,6.81
2023-03-03T01:55:04.308Z,6.73
2023-03-03T01:57:39.843Z,6.68
2023-03-03T02:00:11.422Z,6.66
2023-03-03T02:02:40.286Z,6.66
2023-03-03T02:05:08.297Z,6.60
2023-03-03T02:07:36.963Z,6.62
2023-03-03T02:10:10.982Z,6.42
2023-03-03T02:12:48.853Z,6.46
2023-03-03T02:15:36.420Z,6.30
2023-03-03T02:18:14.658Z,6.50
2023-03-03T02:21:06.349Z,6.44
2023-03-03T02:23:57.869Z,6.40
2023-03-03T02:26:30.583Z,6.44
2023-03-03T02:28:57.674Z,6.31
2023-03-03T02:31:28.350Z,6.32
2023-03-03T02:33:56.116Z,6.13
2023-03-03T02:36:33.013Z,6.24
2023-03-03T02:39:26.585Z,6.19
2023-03-03T02:42:08.997Z,6.25
2023-03-03T02:44:36.624Z,6.19
2023-03-03T02:47:08.122Z,6.39
2023-03-03T02:49:38.098Z,6.41
2023-03-03T02:52:11.991Z,6.31
2023-03-03T02:54:44.379Z,6.30
2023-03-03T02:57:13.642Z,6.37
2023-03-03T02:59:40.544Z,6.27
2023-03-03T03:02:08.830Z,6.43
2023-03-03T03:04:37.904Z,6.27
2023-03-03T03:07:04.992Z,6.26
2023-03-03T03:09:31.913Z,6.17
2023-03-03T03:12:02.321Z,6.18
2023-03-03T03:14:29.482Z,6.01
2023-03-03T03:16:56.449Z,5.75
2023-03-03T03:19:23.336Z,5.76
2023-03-03T03:21:50.332Z,5.98
2023-03-03T03:24:21.865Z,6.05
2023-03-03T03:26:48.812Z,5.83
2023-03-03T03:29:15.671Z,6.03
2023-03-03T03:31:43.883Z,6.13
2023-03-03T03:34:11.092Z,6.23
2023-03-03T03:36:40.246Z,6.18
2023-03-03T03:39:07.120Z,6.14
2023-03-03T03:41:36.528Z,6.11
2023-03-03T03:44:05.946Z,5.99
2023-03-03T03:46:35.368Z,6.10
2023-03-03T03:49:02.399Z,5.86
2023-03-03T03:51:31.588Z,5.79
2023-03-03T03:53:58.472Z,6.06
2023-03-03T03:56:27.496Z,6.08
2023-03-03T03:58:56.562Z,5.93
2023-03-03T04:01:26.431Z,5.88
2023-03-03T04:03:53.323Z,5.87
2023-03-03T04:06:22.771Z,6.05
2023-03-03T04:08:49.780Z,5.99
2023-03-03T04:11:21.172Z,5.99
2023-03-03T04:13:48.001Z,5.97
2023-03-03T04:16:15.042Z,5.78
2023-03-03T04:18:46.574Z,5.92
2023-03-03T04:21:15.117Z,6.03
2023-03-03T04:23:45.125Z,5.85
2023-03-03T04:26:11.977Z,5.87
2023-03-03T04:28:38.803Z,5.93
2023-03-03T04:31:08.225Z,5.91
2023-03-03T04:33:38.263Z,5.93
2023-03-03T04:36:08.115Z,5.96
2023-03-03T04:38:37.268Z,5.75
2023-03-03T04:41:06.841Z,5.83
2023-03-03T04:43:36.866Z,5.74
2023-03-03T04:46:04.033Z,5.93
2023-03-03T04:48:31.173Z,5.74
2023-03-03T04:51:00.372Z,5.74
2023-03-03T04:53:27.343Z,5.93
2023-03-03T04:56:02.188Z,5.88
2023-03-03T04:58:29.123Z,5.93
2023-03-03T05:00:57.613Z,5.88
2023-03-03T05:03:27.108Z,5.92
2023-03-03T05:05:56.432Z,5.87
2023-03-03T05:08:23.990Z,5.75
2023-03-03T05:10:55.162Z,5.57
2023-03-03T05:13:24.161Z,5.69
2023-03-03T05:15:55.223Z,5.72
2023-03-03T05:18:27.539Z,5.73
2023-03-03T05:20:54.918Z,5.59
2023-03-03T05:23:26.498Z,5.71
2023-03-03T05:25:55.910Z,5.67
2023-03-03T05:28:25.321Z,5.72
2023-03-03T05:30:54.719Z,5.78
2023-03-03T05:33:21.600Z,5.76
2023-03-03T05:35:54.079Z,5.69
2023-03-03T05:38:21.241Z,5.68
2023-03-03T05:40:48.376Z,5.67
2023-03-03T05:43:15.214Z,5.69
2023-03-03T05:45:49.899Z,5.56
2023-03-03T05:48:16.859Z,5.36
2023-03-03T05:50:43.711Z,5.32
2023-03-03T05:53:13.999Z,5.34
2023-03-03T05:55:41.343Z,5.42
2023-03-03T05:58:08.214Z,5.36
2023-03-03T06:00:35.150Z,5.64
2023-03-03T06:03:02.127Z,5.57
2023-03-03T06:05:32.007Z,5.63
2023-03-03T06:08:01.172Z,5.53
2023-03-03T06:10:31.127Z,5.59
2023-03-03T06:12:58.934Z,5.53
2023-03-03T06:15:28.434Z,5.49
2023-03-03T06:17:55.349Z,5.54
2023-03-03T06:20:22.233Z,5.47
2023-03-03T06:22:49.179Z,5.45
2023-03-03T06:25:16.210Z,5.39
2023-03-03T06:27:45.139Z,5.51
2023-03-03T06:30:12.956Z,5.44
2023-03-03T06:32:40.239Z,5.41
2023-03-03T06:35:10.121Z,5.50
2023-03-03T06:37:39.529Z,5.44
2023-03-03T06:40:09.498Z,5.51
2023-03-03T06:42:38.960Z,5.36
2023-03-03T06:45:06.399Z,5.44
2023-03-03T06:47:33.930Z,5.50
2023-03-03T06:50:03.890Z,5.36
2023-03-03T06:52:30.730Z,5.62
2023-03-03T06:55:11.303Z,5.75
2023-03-03T06:57:38.470Z,5.47
2023-03-03T07:00:16.524Z,5.48
2023-03-03T07:02:43.762Z,5.44
2023-03-03T07:05:18.362Z,5.44
2023-03-03T07:07:45.400Z,5.50
2023-03-03T07:10:26.342Z,5.40
2023-03-03T07:12:54.750Z,5.67
2023-03-03T07:15:37.684Z,5.68
2023-03-03T07:18:25.689Z,5.74
2023-03-03T07:20:52.654Z,5.53
2023-03-03T07:23:42.395Z,5.92
2023-03-03T07:26:16.097Z,5.98
2023-03-03T07:28:48.910Z,5.99
2023-03-03T07:31:34.762Z,6.09
2023-03-03T07:34:03.828Z,5.90
2023-03-03T07:36:31.577Z,5.74
2023-03-03T07:39:05.549Z,5.53
2023-03-03T07:41:40.144Z,5.60
2023-03-03T07:44:29.695Z,5.54
2023-03-03T07:47:01.708Z,5.70
2023-03-03T07:49:39.421Z,5.52
2023-03-03T07:52:26.414Z,5.61
2023-03-03T07:54:56.393Z,5.73
2023-03-03T07:57:26.750Z,5.82
2023-03-03T07:59:59.861Z,6.00
2023-03-03T08:02:52.115Z,6.17
2023-03-03T08:05:22.004Z,6.18
2023-03-03T08:07:50.833Z,6.28
2023-03-03T08:10:50.445Z,6.25
2023-03-03T08:13:35.124Z,6.17
2023-03-03T08:16:09.586Z,6.22
2023-03-03T08:18:55.961Z,6.18
2023-03-03T08:21:25.729Z,6.07
2023-03-03T08:23:53.743Z,6.11
2023-03-03T08:26:25.874Z,6.22
2023-03-03T08:28:53.503Z,6.22
2023-03-03T08:31:40.807Z,6.46
2023-03-03T08:34:08.957Z,6.48
2023-03-03T08:36:38.387Z,6.48
2023-03-03T08:39:07.770Z,6.32
2023-03-03T08:41:34.745Z,6.18
2023-03-03T08:44:04.063Z,6.39
2023-03-03T08:46:36.270Z,6.46
2023-03-03T08:49:03.602Z,6.47
2023-03-03T08:51:34.539Z,6.87
2023-03-03T08:54:04.420Z,6.96
2023-03-03T08:56:34.383Z,6.96
2023-03-03T08:59:02.802Z,6.16
2023-03-03T09:01:33.665Z,6.19
2023-03-03T09:04:00.677Z,6.37
2023-03-03T09:06:27.735Z,6.17
2023-03-03T09:08:55.161Z,5.50
2023-03-03T09:11:32.580Z,5.62
2023-03-03T09:14:14.845Z,5.83
2023-03-03T09:16:55.775Z,6.04
2023-03-03T09:19:32.525Z,6.28
2023-03-03T09:22:32.280Z,6.54
2023-03-03T09:25:00.198Z,6.65
2023-03-03T09:27:32.045Z,6.58
2023-03-03T09:30:44.386Z,6.36
2023-03-03T09:33:23.728Z,6.35
2023-03-03T09:36:04.646Z,6.30
2023-03-03T09:38:33.949Z,6.61
2023-03-03T09:41:46.692Z,6.77
2023-03-03T09:44:41.976Z,7.00
2023-03-03T09:47:42.543Z,6.97
2023-03-03T09:50:36.637Z,7.12
2023-03-03T09:53:30.449Z,6.94
2023-03-03T09:56:17.105Z,7.16
2023-03-03T09:59:01.439Z,7.30
2023-03-03T10:02:07.330Z,7.52
2023-03-03T10:05:15.746Z,7.14
2023-03-03T10:08:16.617Z,7.50
2023-03-03T10:11:02.753Z,7.53
2023-03-03T10:13:52.378Z,7.40
2023-03-03T10:16:49.992Z,7.22
2023-03-03T10:19:43.866Z,7.28
2023-03-03T10:22:50.180Z,7.31
2023-03-03T10:25:23.019Z,7.82
2023-03-03T10:28:40.456Z,8.17
2023-03-03T10:31:46.844Z,8.28
2023-03-03T10:34:53.898Z,8.24
2023-03-03T10:37:32.886Z,8.93
2023-03-03T10:40:10.908Z,9.21
2023-03-03T10:43:00.127Z,9.34
2023-03-03T10:45:44.466Z,10.09
2023-03-03T10:48:44.467Z,9.91
2023-03-03T10:52:03.688Z,10.38
2023-03-03T10:54:53.935Z,10.20
2023-03-03T10:57:45.670Z,9.98
2023-03-03T11:00:33.672Z,9.84
2023-03-03T11:03:35.610Z,10.17
2023-03-03T11:06:09.344Z,10.70
2023-03-03T11:08:48.069Z,11.26
2023-03-03T11:11:48.670Z,10.92
2023-03-03T11:14:34.666Z,10.46
2023-03-03T11:17:51.923Z,11.07
2023-03-03T11:20:43.300Z,12.78
2023-03-03T11:23:34.835Z,12.60
2023-03-03T11:26:22.746Z,14.62
2023-03-03T11:29:27.022Z,14.59
2023-03-03T11:31:57.758Z,15.31
2023-03-03T11:34:52.655Z,18.49
2023-03-03T11:37:36.901Z,20.56
2023-03-03T11:40:27.524Z,21.45
2023-03-03T11:43:34.126Z,19.45
2023-03-03T11:46:13.195Z,16.93
2023-03-03T11:49:05.820Z,17.48
2023-03-03T11:51:53.196Z,20.02
2023-03-03T11:54:36.537Z,19.99
2023-03-03T11:57:29.556Z,18.06
2023-03-03T12:00:54.488Z,20.50
2023-03-03T12:03:41.667Z,22.19
2023-03-03T12:06:25.132Z,21.66
2023-03-03T12:09:22.593Z,20.81
2023-03-03T12:11:55.384Z,20.53
2023-03-03T12:14:33.067Z,19.90
2023-03-03T12:17:34.138Z,17.83
2023-03-03T12:20:25.122Z,19.47
2023-03-03T12:23:10.319Z,17.28
2023-03-03T12:25:48.078Z,18.97
2023-03-03T12:28:23.358Z,17.53
2023-03-03T12:31:42.227Z,19.42
2023-03-03T12:34:25.824Z,19.54
2023-03-03T12:37:35.918Z,19.02
2023-03-03T12:40:21.856Z,18.61
2023-03-03T12:43:16.588Z,16.96
2023-03-03T12:46:28.616Z,15.22
2023-03-03T12:48:58.406Z,14.92
2023-03-03T12:51:51.234Z,14.75
2023-03-03T12:54:58.166Z,14.09
2023-03-03T12:58:02.795Z,13.89
2023-03-03T13:00:49.160Z,13.29
2023-03-03T13:03:54.953Z,12.75
2023-03-03T13:06:32.481Z,12.15
2023-03-03T13:09:36.386Z,12.03
2023-03-03T13:12:21.822Z,11.58
2023-03-03T13:15:05.754Z,11.49
2023-03-03T13:17:59.634Z,11.40
2023-03-03T13:20:41.228Z,11.15
2023-03-03T13:23:38.241Z,11.11
2023-03-03T13:26:16.167Z,10.41
2023-03-03T13:29:00.493Z,10.54
2023-03-03T13:31:43.137Z,10.52
2023-03-03T13:34:43.785Z,9.91
2023-03-03T13:37:20.139Z,10.18
2023-03-03T13:40:32.215Z,10.34
2023-03-03T13:43:19.316Z,10.54
2023-03-03T13:46:14.602Z,10.33
2023-03-03T13:49:26.808Z,9.87
2023-03-03T13:52:14.475Z,10.33
2023-03-03T13:55:01.164Z,10.61
2023-03-03T13:58:06.050Z,10.72
2023-03-03T14:00:50.966Z,10.44
2023-03-03T14:04:14.665Z,10.56
2023-03-03T14:06:50.617Z,10.52
2023-03-03T14:10:03.033Z,10.91
2023-03-03T14:12:45.676Z,11.18
2023-03-03T14:15:36.783Z,10.88
2023-03-03T14:18:24.888Z,11.11
2023-03-03T14:20:55.368Z,11.04
2023-03-03T14:23:51.933Z,11.31
2023-03-03T14:26:19.026Z,11.32
2023-03-03T14:28:49.958Z,11.29
2023-03-03T14:31:52.419Z,10.86
2023-03-03T14:34:39.946Z,10.87
2023-03-03T14:37:32.274Z,10.60
2023-03-03T14:40:32.459Z,10.46
2023-03-03T14:43:08.199Z,10.34
2023-03-03T14:45:44.262Z,10.41
2023-03-03T14:48:18.569Z,10.74
2023-03-03T14:51:29.001Z,10.73
2023-03-03T14:53:57.715Z,10.92
2023-03-03T14:56:34.165Z,10.85
2023-03-03T14:59:27.025Z,10.71
2023-03-03T15:02:09.016Z,10.61
2023-03-03T15:04:35.937Z,10.62
2023-03-03T15:07:31.377Z,10.42
2023-03-03T15:09:58.440Z,10.14
2023-03-03T15:12:39.071Z,10.29
2023-03-03T15:18:27.884Z,10.04
2023-03-03T15:21:21.929Z,9.96
2023-03-03T15:24:31.383Z,10.16
2023-03-03T15:27:16.628Z,9.77
2023-03-03T15:29:58.518Z,9.79
2023-03-03T15:32:59.851Z,9.62
2023-03-03T15:35:52.882Z,9.87
2023-03-03T15:38:40.820Z,9.70
2023-03-03T15:41:35.286Z,9.42
2023-03-03T15:44:19.316Z,9.64
2023-03-03T15:46:58.386Z,9.44
2023-03-03T15:50:01.790Z,9.47
2023-03-03T15:53:18.546Z,9.49
2023-03-03T15:56:06.169Z,9.51
2023-03-03T15:59:26.397Z,9.69
2023-03-03T16:02:20.670Z,9.90
2023-03-03T16:04:54.439Z,10.00
2023-03-03T16:07:58.879Z,9.87
2023-03-03T16:11:12.184Z,9.51
2023-03-03T16:14:02.321Z,9.41
2023-03-03T16:16:38.038Z,9.45
2023-03-03T16:19:54.643Z,9.64
2023-03-03T16:22:56.563Z,9.43
2023-03-03T16:25:52.420Z,9.69
2023-03-03T16:28:31.243Z,9.80
2023-03-03T16:31:45.597Z,9.74
2023-03-03T16:34:18.541Z,9.66
2023-03-03T16:37:05.664Z,9.66
2023-03-03T16:39:56.992Z,9.48
2023-03-03T16:42:32.460Z,9.63
2023-03-03T16:45:22.053Z,9.79
2023-03-03T16:48:28.125Z,9.91
2023-03-03T16:50:57.781Z,9.66
2023-03-03T16:53:49.109Z,9.45
2023-03-03T16:56:29.357Z,9.52
2023-03-03T16:59:34.351Z,9.28
2023-03-03T17:02:37.594Z,9.17
2023-03-03T17:05:34.440Z,8.92
2023-03-03T17:08:39.854Z,8.72
2023-03-03T17:11:43.758Z,8.80
2023-03-03T17:14:58.737Z,8.82
2023-03-03T17:18:09.227Z,8.59
2023-03-03T17:20:50.981Z,8.85
2023-03-03T17:23:29.907Z,8.73
2023-03-03T17:26:26.191Z,8.52
2023-03-03T17:29:09.694Z,8.49
2023-03-03T17:32:08.192Z,8.62
2023-03-03T17:35:25.505Z,8.90
2023-03-03T17:38:19.764Z,8.88
2023-03-03T17:41:06.530Z,8.75
2023-03-03T17:44:13.923Z,8.74
2023-03-03T17:47:01.487Z,8.93
2023-03-03T17:49:50.842Z,8.81
2023-03-03T17:52:42.348Z,8.95
2023-03-03T17:55:30.238Z,8.77
2023-03-03T17:58:12.471Z,8.95
2023-03-03T18:01:21.249Z,8.86
2023-03-03T18:04:51.226Z,8.96
2023-03-03T18:07:57.501Z,9.00
2023-03-03T18:11:13.643Z,8.97
2023-03-03T18:14:22.374Z,9.04
2023-03-03T18:17:08.595Z,8.99
2023-03-03T18:20:13.155Z,8.90
2023-03-03T18:22:48.561Z,8.96
2023-03-03T18:25:19.596Z,9.05
2023-03-03T18:28:03.844Z,9.05
2023-03-03T18:30:58.357Z,9.17
2023-03-03T18:34:00.738Z,9.21
2023-03-03T18:36:27.538Z,8.94
2023-03-03T18:38:57.399Z,8.83
2023-03-03T18:42:30.404Z,8.93
2023-03-03T18:44:59.627Z,8.95
2023-03-03T18:48:01.083Z,8.89
2023-03-03T18:50:37.259Z,8.89
2023-03-03T18:53:16.040Z,9.10
2023-03-03T18:56:00.934Z,9.14
2023-03-03T18:58:35.739Z,8.91
2023-03-03T19:01:10.786Z,8.80
2023-03-03T19:04:03.827Z,8.77
2023-03-03T19:06:35.629Z,8.92
2023-03-03T19:09:05.735Z,8.87
2023-03-03T19:11:44.964Z,8.94
2023-03-03T19:14:28.880Z,8.71
2023-03-03T19:16:59.010Z,8.79
2023-03-03T19:19:34.955Z,8.82
2023-03-03T19:22:27.100Z,8.67
2023-03-03T19:25:09.215Z,8.34
2023-03-03T19:27:50.263Z,8.47
2023-03-03T19:30:44.402Z,8.58
2023-03-03T19:33:57.208Z,8.10
2023-03-03T19:37:13.573Z,8.19
2023-03-03T19:39:40.351Z,8.09
2023-03-03T19:42:30.379Z,8.38
2023-03-03T19:45:05.698Z,8.16
2023-03-03T19:47:46.749Z,8.18
2023-03-03T19:50:44.327Z,8.12
2023-03-03T19:53:34.456Z,7.90
2023-03-03T19:56:28.285Z,7.91
2023-03-03T19:59:13.866Z,7.94
2023-03-03T20:02:25.174Z,7.66
2023-03-03T20:05:25.423Z,7.56
2023-03-03T20:08:14.253Z,7.53
2023-03-03T20:10:54.972Z,7.52
2023-03-03T20:13:43.650Z,7.42
2023-03-03T20:16:22.821Z,7.36
2023-03-03T20:19:26.152Z,7.31
2023-03-03T20:22:28.315Z,7.53
2023-03-03T20:25:14.481Z,7.49
2023-03-03T20:28:13.251Z,7.47
2023-03-03T20:30:50.431Z,7.48
2023-03-03T20:33:32.755Z,7.32
2023-03-03T20:36:09.500Z,7.35
2023-03-03T20:39:11.628Z,7.25
2023-03-03T20:42:06.985Z,6.99
2023-03-03T20:45:05.680Z,7.19
2023-03-03T20:48:23.733Z,7.06
2023-03-03T20:51:11.615Z,7.16
2023-03-03T20:53:48.532Z,7.03
2023-03-03T20:56:38.793Z,7.11
2023-03-03T20:59:19.006Z,6.93
2023-03-03T21:01:58.372Z,7.09
2023-03-03T21:04:31.861Z,7.04
2023-03-03T21:07:01.349Z,6.80
2023-03-03T21:09:41.581Z,6.89
2023-03-03T21:12:31.798Z,6.86
2023-03-03T21:15:11.359Z,6.78
2023-03-03T21:17:42.507Z,6.78
2023-03-03T21:20:25.040Z,6.90
2023-03-03T21:22:53.462Z,7.05
2023-03-03T21:25:53.894Z,6.94
2023-03-03T21:28:29.592Z,7.05
2023-03-03T21:31:15.668Z,6.95
2023-03-03T21:33:58.405Z,6.97
2023-03-03T21:36:47.323Z,6.93
2023-03-03T21:39:28.697Z,6.78
2023-03-03T21:42:09.506Z,6.92
2023-03-03T21:44:40.959Z,6.90
2023-03-03T21:47:11.858Z,6.80
2023-03-03T21:49:43.537Z,7.10
2023-03-03T21:52:16.370Z,7.28
2023-03-03T21:54:48.033Z,7.48
2023-03-03T21:57:18.382Z,7.51
2023-03-03T21:59:45.429Z,7.36
2023-03-03T22:02:12.481Z,7.43
2023-03-03T22:04:39.812Z,7.41
2023-03-03T22:07:07.112Z,7.42
2023-03-03T22:09:35.022Z,7.58
2023-03-03T22:12:02.103Z,7.60
2023-03-03T22:14:29.180Z,7.59
2023-03-03T22:16:56.018Z,7.64
2023-03-03T22:19:23.136Z,7.77
2023-03-03T22:21:50.416Z,7.94
2023-03-03T22:24:19.613Z,7.99
2023-03-03T22:26:48.709Z,7.71
2023-03-03T22:29:17.055Z,7.68
2023-03-03T22:31:44.059Z,7.98
2023-03-03T22:34:13.243Z,8.13
2023-03-03T22:36:40.174Z,7.96
2023-03-03T22:39:10.511Z,8.04
2023-03-03T22:41:37.546Z,8.30
2023-03-03T22:44:04.596Z,8.17
2023-03-03T22:46:31.606Z,8.23
2023-03-03T22:49:00.844Z,8.28
2023-03-03T22:51:30.266Z,8.15
2023-03-03T22:53:59.657Z,8.17
2023-03-03T22:56:26.688Z,8.18
2023-03-03T22:58:58.111Z,8.28
2023-03-03T23:01:25.062Z,8.14
2023-03-03T23:03:52.096Z,8.01
2023-03-03T23:06:18.947Z,8.29
2023-03-03T23:08:45.981Z,8.27
2023-03-03T23:11:15.216Z,8.32
2023-03-03T23:13:42.194Z,8.34
2023-03-03T23:16:09.104Z,8.42
2023-03-03T23:18:36.012Z,8.47
2023-03-03T23:21:02.885Z,8.47
2023-03-03T23:23:30.614Z,8.29
2023-03-03T23:25:57.633Z,8.34
2023-03-03T23:28:24.542Z,8.42
2023-03-03T23:30:52.433Z,8.57
2023-03-03T23:33:19.425Z,8.39
2023-03-03T23:35:49.908Z,8.03
2023-03-03T23:38:17.720Z,8.32
2023-03-03T23:40:47.171Z,8.30
2023-03-03T23:43:16.579Z,8.42
2023-03-03T23:45:43.667Z,8.47
2023-03-03T23:48:10.829Z,8.25
2023-03-03T23:50:38.086Z,8.31
2023-03-03T23:53:06.232Z,8.36
2023-03-03T23:55:33.490Z,8.45
2023-03-03T23:58:04.831Z,8.61
